Time;durP1;ratioP1;P1;durP2;ratioP2;P2;SDS_P1;SDS_P2;PMS_P1;PMS_P2;Temp;Humidity;BMP_temperature;BMP_pressure;BME280_temperature;BME280_humidity;BME280_pressure;Samples;Min_cycle;Max_cycle;Signal;HPM_P1;HPM_P2
2023/03/04 00:01:53;;;;;;;5.68;0.40;;;5.20;99.90;;;;;;4896671;29;20531;-89
2023/03/04 00:04:19;;;;;;;6.00;0.70;;;5.30;99.90;;;;;;4912011;29;20025;-89
2023/03/04 00:06:44;;;;;;;5.90;0.65;;;5.20;99.90;;;;;;4910319;29;20469;-90
2023/03/04 00:09:10;;;;;;;8.60;0.40;;;5.20;99.90;;;;;;4912126;29;20062;-89
2023/03/04 00:11:36;;;;;;;11.25;0.40;;;5.20;99.90;;;;;;4896552;29;20079;-89
2023/03/04 00:14:01;;;;;;;9.57;0.40;;;5.20;99.90;;;;;;4895109;29;20375;-90
2023/03/04 00:16:27;;;;;;;11.23;0.98;;;5.20;99.90;;;;;;4896442;29;20040;-88
2023/03/04 00:18:54;;;;;;;9.77;0.50;;;5.20;99.90;;;;;;4911814;29;20051;-87
2023/03/04 00:21:20;;;;;;;6.90;0.73;;;5.20;99.90;;;;;;4895333;29;20039;-89
2023/03/04 00:23:45;;;;;;;6.53;0.60;;;5.20;99.90;;;;;;4912051;29;20028;-89
2023/03/04 00:26:12;;;;;;;5.85;0.82;;;5.20;99.90;;;;;;4911243;29;20040;-89
2023/03/04 00:28:39;;;;;;;4.18;0.60;;;5.10;99.90;;;;;;4912162;29;20056;-90
2023/03/04 00:31:05;;;;;;;7.47;0.47;;;5.20;99.90;;;;;;4911899;29;20091;-90
2023/03/04 00:33:31;;;;;;;5.68;0.30;;;5.20;99.90;;;;;;4887000;29;20080;-90
2023/03/04 00:35:57;;;;;;;7.05;0.60;;;5.20;99.90;;;;;;4911034;29;20028;-88
2023/03/04 00:38:23;;;;;;;8.15;1.02;;;5.20;99.90;;;;;;4887700;29;20111;-89
2023/03/04 00:40:49;;;;;;;10.63;1.05;;;5.20;99.90;;;;;;4894757;29;20067;-88
2023/03/04 00:43:15;;;;;;;8.68;0.63;;;5.20;99.90;;;;;;4895494;29;20462;-89
2023/03/04 00:45:41;;;;;;;9.93;0.60;;;5.20;99.90;;;;;;4911584;29;20032;-87
2023/03/04 00:48:06;;;;;;;7.30;0.60;;;5.20;99.90;;;;;;4896328;29;20039;-89
2023/03/04 00:50:32;;;;;;;10.57;0.50;;;5.20;99.90;;;;;;4891035;29;20180;-90
2023/03/04 00:52:58;;;;;;;5.20;0.55;;;5.20;99.90;;;;;;4891805;29;20111;-89
2023/03/04 00:55:23;;;;;;;7.43;0.68;;;5.20;99.90;;;;;;4914804;29;20554;-90
2023/03/04 00:57:49;;;;;;;9.80;0.57;;;5.20;99.90;;;;;;4895242;29;20492;-88
2023/03/04 01:00:16;;;;;;;12.18;0.50;;;5.20;99.90;;;;;;4914713;29;20493;-90
2023/03/04 01:02:41;;;;;;;12.18;0.57;;;5.20;99.90;;;;;;4899612;29;20388;-89
2023/03/04 01:05:08;;;;;;;7.47;0.40;;;5.20;99.90;;;;;;4896729;29;20024;-88
2023/03/04 01:07:34;;;;;;;6.65;0.40;;;5.20;99.90;;;;;;4899396;29;20035;-90
2023/03/04 01:09:59;;;;;;;8.43;0.50;;;5.20;99.90;;;;;;4899151;29;20032;-87
2023/03/04 01:12:25;;;;;;;14.70;0.82;;;5.20;99.90;;;;;;4897857;29;20099;-90
2023/03/04 01:14:51;;;;;;;6.38;0.57;;;5.20;99.90;;;;;;4895208;29;20388;-85
2023/03/04 01:17:16;;;;;;;11.23;0.80;;;5.20;99.90;;;;;;4899005;29;20130;-90
2023/03/04 01:19:42;;;;;;;9.20;0.60;;;5.20;99.90;;;;;;4896463;29;20040;-89
2023/03/04 01:22:09;;;;;;;6.45;0.55;;;5.20;99.90;;;;;;4896414;29;20039;-88
2023/03/04 01:24:35;;;;;;;14.23;0.57;;;5.20;99.90;;;;;;4894877;29;20024;-87
2023/03/04 01:27:01;;;;;;;7.40;0.50;;;5.20;99.90;;;;;;4911293;29;20520;-86
2023/03/04 01:29:26;;;;;;;8.70;1.35;;;5.20;99.90;;;;;;4897681;29;20028;-86
2023/03/04 01:31:52;;;;;;;6.95;0.50;;;5.20;99.90;;;;;;4896126;29;20054;-87
2023/03/04 01:34:19;;;;;;;5.53;0.40;;;5.20;99.90;;;;;;4891104;29;20477;-87
2023/03/04 01:36:44;;;;;;;7.00;0.70;;;5.20;99.90;;;;;;4898213;29;20047;-87
2023/03/04 01:39:10;;;;;;;14.90;0.50;;;5.20;99.90;;;;;;4894877;29;20087;-85
2023/03/04 01:41:36;;;;;;;12.18;1.10;;;5.20;99.90;;;;;;4893697;29;20039;-87
2023/03/04 01:44:02;;;;;;;11.57;0.52;;;5.20;99.90;;;;;;4892040;29;20024;-85
2023/03/04 01:46:29;;;;;;;9.38;0.77;;;5.20;99.90;;;;;;4914127;29;20029;-86
2023/03/04 01:48:55;;;;;;;6.25;0.50;;;5.20;99.90;;;;;;4890424;29;20037;-88
2023/03/04 01:51:21;;;;;;;8.32;0.50;;;5.20;99.90;;;;;;4896318;29;20048;-85
2023/03/04 01:53:52;;;;;;;10.00;0.90;;;5.20;99.90;;;;;;4898705;29;20378;-89
2023/03/04 01:56:37;;;;;;;;;;;5.20;99.90;;;;;;4915109;29;20059;-88
2023/03/04 01:59:14;;;;;;;9.38;0.52;;;5.20;99.90;;;;;;4895776;29;19918;-88
2023/03/04 02:01:42;;;;;;;8.50;0.40;;;5.20;99.90;;;;;;4893346;29;20434;-89
2023/03/04 02:04:10;;;;;;;9.38;0.47;;;5.20;99.90;;;;;;4911677;29;20477;-85
2023/03/04 02:06:38;;;;;;;6.65;0.50;;;5.10;99.90;;;;;;4897839;29;20170;-88
2023/03/04 02:09:04;;;;;;;6.15;0.30;;;5.20;99.90;;;;;;4897956;29;20036;-89
2023/03/04 02:11:31;;;;;;;7.68;0.40;;;5.20;99.90;;;;;;4895029;29;20108;-85
2023/03/04 02:13:58;;;;;;;10.15;0.55;;;5.10;99.90;;;;;;4893939;29;20272;-88
2023/03/04 02:16:23;;;;;;;7.45;0.40;;;5.10;99.90;;;;;;4891975;29;20346;-87
2023/03/04 02:18:50;;;;;;;4.20;0.52;;;5.10;99.90;;;;;;4893915;29;20032;-88
2023/03/04 02:21:29;;;;;;;7.25;0.30;;;5.10;99.90;;;;;;4888034;29;20036;-88
2023/03/04 02:23:57;;;;;;;6.10;0.30;;;5.10;99.90;;;;;;4893142;29;20028;-89
2023/03/04 02:26:26;;;;;;;4.95;0.30;;;5.10;99.90;;;;;;4893701;29;20148;-88
2023/03/04 02:28:55;;;;;;;4.82;0.30;;;5.10;99.90;;;;;;4894725;29;20056;-86
2023/03/04 02:31:32;;;;;;;5.63;0.40;;;5.10;99.90;;;;;;4886177;29;20071;-88
2023/03/04 02:34:01;;;;;;;7.28;0.40;;;5.10;99.90;;;;;;4907808;29;20111;-86
2023/03/04 02:36:28;;;;;;;9.70;0.40;;;5.10;99.90;;;;;;4890672;29;20040;-88
2023/03/04 02:38:54;;;;;;;6.15;0.57;;;5.10;99.90;;;;;;4888338;29;20489;-86
2023/03/04 02:41:25;;;;;;;4.65;0.50;;;5.10;99.90;;;;;;4888829;29;20024;-87
2023/03/04 02:43:52;;;;;;;;;;;5.10;99.90;;;;;;4895007;29;20036;-85
2023/03/04 02:46:18;;;;;;;4.18;0.30;;;5.10;99.90;;;;;;4890373;29;19936;-86
2023/03/04 02:48:44;;;;;;;8.35;0.30;;;5.10;99.90;;;;;;4891709;29;20028;-87
2023/03/04 02:51:10;;;;;;;8.15;0.40;;;5.10;99.90;;;;;;4889812;29;20029;-86
2023/03/04 02:53:35;;;;;;;8.25;0.50;;;5.00;99.90;;;;;;4893930;29;20051;-85
2023/03/04 02:56:01;;;;;;;11.88;0.50;;;5.10;99.90;;;;;;4885577;29;20482;-86
2023/03/04 02:58:31;;;;;;;7.85;0.55;;;5.10;99.90;;;;;;4894603;29;20036;-87
2023/03/04 03:00:57;;;;;;;8.43;0.30;;;5.20;99.90;;;;;;4893858;29;20029;-87
2023/03/04 03:03:24;;;;;;;7.70;0.40;;;5.10;99.90;;;;;;4889717;29;20390;-87
2023/03/04 03:05:49;;;;;;;9.95;0.40;;;5.10;99.90;;;;;;4893878;29;20032;-88
2023/03/04 03:08:15;;;;;;;11.20;0.40;;;5.10;99.90;;;;;;4883819;29;20029;-86
2023/03/04 03:10:41;;;;;;;7.80;0.40;;;5.10;99.90;;;;;;4891849;29;20055;-89
2023/03/04 03:13:07;;;;;;;11.05;0.38;;;5.10;99.90;;;;;;4888726;29;20486;-86
2023/03/04 03:15:33;;;;;;;8.05;0.40;;;5.10;99.90;;;;;;4889491;29;20065;-86
2023/03/04 03:17:59;;;;;;;8.23;0.40;;;5.10;99.90;;;;;;4892219;29;20040;-85
2023/03/04 03:20:24;;;;;;;8.30;0.40;;;5.10;99.90;;;;;;4912357;29;20028;-88
2023/03/04 03:22:50;;;;;;;5.15;0.47;;;5.10;99.90;;;;;;4891478;29;20524;-87
2023/03/04 03:25:16;;;;;;;10.63;0.50;;;5.10;99.90;;;;;;4911458;29;20167;-88
2023/03/04 03:27:42;;;;;;;5.72;0.38;;;5.10;99.90;;;;;;4894898;29;20043;-86
2023/03/04 03:30:12;;;;;;;4.63;0.20;;;5.10;99.90;;;;;;4894387;29;20620;-89
2023/03/04 03:32:37;;;;;;;8.95;0.30;;;5.00;99.90;;;;;;4892680;29;20044;-88
2023/03/04 03:35:03;;;;;;;8.57;0.70;;;5.10;99.90;;;;;;4884185;29;20036;-88
2023/03/04 03:37:29;;;;;;;4.68;0.70;;;5.10;99.90;;;;;;4896943;29;20527;-86
2023/03/04 03:39:54;;;;;;;9.32;0.57;;;5.10;99.90;;;;;;4911807;29;20039;-88
2023/03/04 03:42:20;;;;;;;14.90;0.82;;;5.10;99.90;;;;;;4913171;29;20272;-89
2023/03/04 03:44:46;;;;;;;8.65;0.32;;;5.10;99.90;;;;;;4895974;29;20473;-85
2023/03/04 03:47:11;;;;;;;7.35;0.40;;;5.00;99.90;;;;;;4911850;29;20039;-85
2023/03/04 03:49:37;;;;;;;8.85;0.77;;;5.10;99.90;;;;;;4892958;29;20445;-86
2023/03/04 03:52:03;;;;;;;12.95;0.40;;;5.10;99.90;;;;;;4892179;29;20036;-86
2023/03/04 03:54:29;;;;;;;8.48;0.30;;;5.10;99.90;;;;;;4891083;29;20131;-88
2023/03/04 03:56:55;;;;;;;5.88;0.30;;;5.10;99.90;;;;;;4886972;29;20520;-85
2023/03/04 03:59:20;;;;;;;5.28;0.35;;;5.10;99.90;;;;;;4895623;29;20034;-86
2023/03/04 04:01:46;;;;;;;5.75;0.63;;;5.10;99.90;;;;;;4892293;29;20051;-86
2023/03/04 04:04:13;;;;;;;10.70;0.90;;;5.10;99.90;;;;;;4891948;29;20123;-86
2023/03/04 04:06:38;;;;;;;8.55;0.40;;;5.10;99.90;;;;;;4891049;29;20032;-86
2023/03/04 04:09:04;;;;;;;7.53;0.50;;;5.10;99.90;;;;;;4910333;29;20032;-86
2023/03/04 04:11:29;;;;;;;9.00;0.40;;;5.10;99.90;;;;;;4896190;29;20051;-86
2023/03/04 04:13:55;;;;;;;8.23;0.50;;;5.10;99.90;;;;;;4889972;29;20056;-86
2023/03/04 04:16:21;;;;;;;6.72;0.30;;;5.10;99.90;;;;;;4896512;29;20469;-87
2023/03/04 04:18:46;;;;;;;9.55;0.30;;;5.10;99.90;;;;;;4896612;29;20032;-86
2023/03/04 04:21:13;;;;;;;8.02;0.40;;;5.10;99.90;;;;;;4892626;29;20437;-87
2023/03/04 04:23:39;;;;;;;3.53;0.20;;;5.10;99.90;;;;;;4892681;29;20032;-86
2023/03/04 04:26:05;;;;;;;8.27;0.40;;;5.10;99.90;;;;;;4894793;29;20025;-87
2023/03/04 04:28:31;;;;;;;3.88;0.82;;;5.10;99.90;;;;;;4899452;29;20032;-86
2023/03/04 04:30:57;;;;;;;6.95;0.30;;;5.10;99.90;;;;;;4900513;29;20046;-86
2023/03/04 04:33:22;;;;;;;5.45;0.30;;;5.20;99.90;;;;;;4896620;29;20063;-86
2023/03/04 04:35:48;;;;;;;6.40;0.30;;;5.10;99.90;;;;;;4896467;29;20040;-87
2023/03/04 04:38:14;;;;;;;6.63;0.30;;;5.10;99.90;;;;;;4894014;29;20072;-85
2023/03/04 04:40:39;;;;;;;6.80;0.30;;;5.10;99.90;;;;;;4898168;29;20035;-87
2023/03/04 04:43:05;;;;;;;7.80;0.35;;;5.10;99.90;;;;;;4898716;29;20040;-86
2023/03/04 04:45:31;;;;;;;7.93;0.20;;;5.10;99.90;;;;;;4899366;29;20027;-87
2023/03/04 04:47:57;;;;;;;5.75;0.65;;;5.10;99.90;;;;;;4895362;29;20392;-87
2023/03/04 04:50:23;;;;;;;8.52;0.45;;;5.10;99.90;;;;;;4899178;29;20551;-87
2023/03/04 04:52:49;;;;;;;6.43;0.30;;;5.10;99.90;;;;;;4898899;29;20028;-88
2023/03/04 04:55:15;;;;;;;5.60;0.55;;;5.10;99.90;;;;;;4904909;29;20129;-89
2023/03/04 04:57:40;;;;;;;5.15;0.20;;;5.10;99.90;;;;;;4896237;29;20055;-87
2023/03/04 05:00:08;;;;;;;4.57;0.30;;;5.00;99.90;;;;;;4899176;29;20032;-87
2023/03/04 05:02:35;;;;;;;4.57;0.32;;;5.00;99.90;;;;;;4891793;29;20103;-86
2023/03/04 05:05:05;;;;;;;7.43;0.25;;;5.00;99.90;;;;;;4916087;29;20039;-86
2023/03/04 05:07:31;;;;;;;6.40;0.20;;;5.00;99.90;;;;;;4895634;29;20032;-88
2023/03/04 05:09:57;;;;;;;6.05;0.20;;;5.00;99.90;;;;;;4899321;29;20437;-89
2023/03/04 05:12:23;;;;;;;2.60;0.20;;;5.10;99.90;;;;;;4895828;29;20193;-86
2023/03/04 05:14:48;;;;;;;6.05;1.20;;;5.00;99.90;;;;;;4893496;29;20033;-88
2023/03/04 05:17:14;;;;;;;4.47;0.13;;;5.10;99.90;;;;;;4893315;29;20039;-88
2023/03/04 05:19:40;;;;;;;4.13;0.40;;;5.00;99.90;;;;;;4909460;29;20036;-88
2023/03/04 05:22:06;;;;;;;4.03;0.20;;;5.10;99.90;;;;;;4891706;29;20032;-88
2023/03/04 05:24:32;;;;;;;6.70;0.35;;;5.00;99.90;;;;;;4898964;29;20095;-88
2023/03/04 05:26:57;;;;;;;2.60;0.20;;;5.00;99.90;;;;;;4895380;29;20047;-88
2023/03/04 05:29:23;;;;;;;5.82;0.35;;;5.00;99.90;;;;;;4893141;29;20035;-87
2023/03/04 05:31:48;;;;;;;7.05;0.30;;;5.00;99.90;;;;;;4896131;29;20055;-86
2023/03/04 05:34:14;;;;;;;6.15;0.30;;;5.00;99.90;;;;;;4897021;29;20047;-86
2023/03/04 05:36:40;;;;;;;4.88;0.25;;;5.10;99.90;;;;;;4898638;29;20044;-87
2023/03/04 05:39:06;;;;;;;3.90;0.20;;;5.10;99.90;;;;;;4896113;29;20024;-89
2023/03/04 05:41:31;;;;;;;6.05;0.40;;;5.00;99.90;;;;;;4891852;29;20116;-85
2023/03/04 05:43:57;;;;;;;5.72;0.20;;;5.00;99.90;;;;;;4896285;29;20362;-89
2023/03/04 05:46:24;;;;;;;8.10;0.50;;;5.00;99.90;;;;;;4898043;29;20032;-86
2023/03/04 05:48:51;;;;;;;4.88;0.30;;;4.90;99.90;;;;;;4896100;29;20366;-84
2023/03/04 05:51:17;;;;;;;4.05;0.30;;;4.90;99.90;;;;;;4897938;29;20059;-87
2023/03/04 05:53:43;;;;;;;3.63;0.15;;;4.80;99.90;;;;;;4898732;29;20293;-86
2023/03/04 05:56:11;;;;;;;8.20;0.30;;;4.80;99.90;;;;;;4897789;29;20031;-87
2023/03/04 05:58:37;;;;;;;6.05;0.20;;;4.80;99.90;;;;;;4893499;29;20043;-85
2023/03/04 06:01:03;;;;;;;5.47;0.20;;;4.80;99.90;;;;;;4896703;29;20128;-87
2023/03/04 06:03:29;;;;;;;4.68;0.35;;;4.80;99.90;;;;;;4897405;29;20043;-86
2023/03/04 06:05:55;;;;;;;5.13;0.20;;;4.80;99.90;;;;;;4898031;29;20032;-86
2023/03/04 06:08:21;;;;;;;2.25;0.20;;;4.80;99.90;;;;;;4892905;29;20449;-87
2023/03/04 06:10:46;;;;;;;6.22;0.30;;;4.70;99.90;;;;;;4913036;29;20048;-87
2023/03/04 06:13:12;;;;;;;4.60;0.40;;;4.70;99.90;;;;;;4896098;29;20373;-87
2023/03/04 06:15:39;;;;;;;2.88;0.15;;;4.80;99.90;;;;;;4893181;29;20039;-89
2023/03/04 06:18:06;;;;;;;4.32;0.20;;;4.80;99.90;;;;;;4892999;29;20548;-88
2023/03/04 06:20:32;;;;;;;5.88;0.30;;;4.80;99.90;;;;;;4897606;29;20059;-87
2023/03/04 06:22:57;;;;;;;4.35;0.30;;;4.70;99.90;;;;;;4892568;29;20028;-89
2023/03/04 06:25:23;;;;;;;3.75;0.55;;;4.70;99.90;;;;;;4894534;29;20389;-88
2023/03/04 06:27:49;;;;;;;4.78;0.20;;;4.70;99.90;;;;;;4910419;29;20036;-88
2023/03/04 06:30:15;;;;;;;5.55;0.20;;;4.70;99.90;;;;;;4891850;29;20473;-87
2023/03/04 06:32:43;;;;;;;2.85;0.20;;;4.70;99.90;;;;;;4897734;29;20032;-87
2023/03/04 06:35:10;;;;;;;2.63;0.15;;;4.70;99.90;;;;;;4895069;29;20132;-87
2023/03/04 06:37:36;;;;;;;2.85;0.15;;;4.80;99.90;;;;;;4892365;29;20044;-87
2023/03/04 06:40:04;;;;;;;4.45;0.40;;;4.70;99.90;;;;;;4897269;29;20096;-87
2023/03/04 06:42:30;;;;;;;3.92;0.20;;;4.70;99.90;;;;;;4913984;29;20381;-88
2023/03/04 06:44:56;;;;;;;4.68;0.20;;;4.70;99.90;;;;;;4894215;29;20028;-85
2023/03/04 06:47:21;;;;;;;3.78;0.30;;;4.70;99.90;;;;;;4891974;29;20169;-87
2023/03/04 06:49:47;;;;;;;5.40;0.32;;;4.80;99.90;;;;;;4895267;29;20032;-88
2023/03/04 06:52:13;;;;;;;6.13;0.20;;;4.70;99.90;;;;;;4892863;29;20036;-87
2023/03/04 06:54:39;;;;;;;7.80;0.40;;;4.80;99.90;;;;;;4911959;29;20036;-85
2023/03/04 06:57:06;;;;;;;4.68;0.30;;;4.80;99.90;;;;;;4893586;29;20036;-89
2023/03/04 06:59:32;;;;;;;4.22;0.20;;;4.90;99.90;;;;;;4892635;29;20031;-86
2023/03/04 07:01:58;;;;;;;2.60;0.20;;;4.90;99.90;;;;;;4895621;29;20496;-89
2023/03/04 07:04:24;;;;;;;8.05;0.95;;;4.80;99.90;;;;;;4890284;29;20028;-86
2023/03/04 07:06:50;;;;;;;5.38;0.20;;;4.90;99.90;;;;;;4890836;29;20119;-85
2023/03/04 07:09:17;;;;;;;4.38;0.20;;;4.90;99.90;;;;;;4895609;29;20123;-84
2023/03/04 07:11:43;;;;;;;5.75;0.20;;;5.00;99.90;;;;;;4892132;29;20052;-87
2023/03/04 07:14:09;;;;;;;4.00;0.32;;;5.10;99.90;;;;;;4895414;29;20034;-85
2023/03/04 07:16:36;;;;;;;8.63;0.30;;;5.10;99.90;;;;;;4895545;29;21433;-86
2023/03/04 07:19:02;;;;;;;4.10;0.20;;;5.10;99.90;;;;;;4893693;29;20047;-87
2023/03/04 07:21:28;;;;;;;5.43;0.30;;;5.10;99.90;;;;;;4911881;29;20095;-85
2023/03/04 07:23:54;;;;;;;6.55;0.20;;;5.10;99.90;;;;;;4911558;29;20061;-87
2023/03/04 07:26:20;;;;;;;4.85;0.20;;;5.10;99.90;;;;;;4896245;29;20036;-87
2023/03/04 07:28:46;;;;;;;6.18;0.28;;;5.20;99.90;;;;;;4890758;29;20087;-87
2023/03/04 07:31:23;;;;;;;5.55;0.28;;;5.10;99.90;;;;;;4893384;29;20025;-87
2023/03/04 07:33:49;;;;;;;6.05;0.20;;;5.00;99.90;;;;;;4892185;29;20078;-86
2023/03/04 07:36:15;;;;;;;5.35;0.22;;;5.00;99.90;;;;;;4895727;29;20111;-87
2023/03/04 07:38:46;;;;;;;4.88;0.30;;;5.00;99.90;;;;;;4893328;29;20060;-88
2023/03/04 07:41:12;;;;;;;5.50;0.25;;;5.00;99.90;;;;;;4895009;29;20426;-87
2023/03/04 07:43:38;;;;;;;7.63;0.40;;;5.20;99.90;;;;;;4893738;29;20127;-86
2023/03/04 07:46:04;;;;;;;5.63;0.40;;;5.20;99.90;;;;;;4894622;29;20043;-86
2023/03/04 07:48:29;;;;;;;5.20;0.30;;;5.30;99.90;;;;;;4895865;29;20032;-87
2023/03/04 07:51:09;;;;;;;6.18;0.30;;;5.40;99.90;;;;;;4892903;29;20039;-87
2023/03/04 07:53:36;;;;;;;;;;;5.40;99.90;;;;;;4892763;29;20034;-84
2023/03/04 07:56:03;;;;;;;7.47;0.40;;;5.40;99.90;;;;;;4896435;29;20261;-84
2023/03/04 07:58:29;;;;;;;6.45;0.40;;;5.50;99.90;;;;;;4895077;29;20120;-85
2023/03/04 08:00:54;;;;;;;6.57;0.40;;;5.60;99.90;;;;;;4892730;29;20445;-86
2023/03/04 08:03:20;;;;;;;4.20;0.22;;;5.60;99.90;;;;;;4895880;29;20067;-86
2023/03/04 08:05:46;;;;;;;4.88;0.30;;;5.70;99.90;;;;;;4898246;29;20480;-86
2023/03/04 08:08:12;;;;;;;4.75;0.30;;;5.70;99.90;;;;;;4897033;29;20068;-86
2023/03/04 08:10:38;;;;;;;6.72;0.50;;;5.70;99.90;;;;;;4888977;29;20048;-85
2023/03/04 08:13:06;;;;;;;10.18;0.60;;;5.70;99.90;;;;;;4896095;29;20102;-86
2023/03/04 08:15:34;;;;;;;5.13;0.30;;;5.70;99.90;;;;;;4892723;29;20031;-87
2023/03/04 08:18:00;;;;;;;5.25;0.40;;;5.70;99.90;;;;;;4915358;29;20036;-86
2023/03/04 08:20:26;;;;;;;4.03;0.40;;;5.80;99.90;;;;;;4895784;29;20395;-86
2023/03/04 08:22:52;;;;;;;4.00;0.40;;;5.80;99.90;;;;;;4915375;29;20080;-86
2023/03/04 08:25:18;;;;;;;8.65;0.40;;;5.80;99.90;;;;;;4897979;29;20111;-86
2023/03/04 08:27:44;;;;;;;7.10;0.60;;;5.90;99.90;;;;;;4897325;29;20036;-86
2023/03/04 08:30:10;;;;;;;6.55;0.30;;;6.00;99.90;;;;;;4898545;29;20039;-87
2023/03/04 08:32:36;;;;;;;4.18;0.30;;;6.00;99.90;;;;;;4914261;29;20035;-86
2023/03/04 08:35:01;;;;;;;3.30;0.32;;;6.10;99.90;;;;;;4896676;29;20123;-86
2023/03/04 08:37:31;;;;;;;3.97;0.30;;;6.10;99.90;;;;;;4898881;29;20457;-86
2023/03/04 08:39:56;;;;;;;4.35;0.30;;;6.00;99.90;;;;;;4898341;29;20028;-86
2023/03/04 08:42:23;;;;;;;3.65;0.30;;;6.00;99.90;;;;;;4896446;29;20030;-86
2023/03/04 08:44:49;;;;;;;5.07;0.35;;;6.10;99.90;;;;;;4912694;29;20485;-87
2023/03/04 08:47:15;;;;;;;4.63;0.25;;;6.20;99.90;;;;;;4913515;29;20119;-86
2023/03/04 08:49:40;;;;;;;4.18;0.30;;;6.30;99.90;;;;;;4897593;29;20036;-86
2023/03/04 08:52:06;;;;;;;6.03;0.30;;;6.30;99.90;;;;;;4898157;29;20028;-86
2023/03/04 08:54:32;;;;;;;4.82;0.30;;;6.30;99.90;;;;;;4897056;29;20043;-87
2023/03/04 08:56:57;;;;;;;5.07;0.30;;;6.30;99.90;;;;;;4893823;29;20412;-87
2023/03/04 08:59:29;;;;;;;5.38;0.30;;;6.30;99.90;;;;;;4896275;29;20434;-87
2023/03/04 09:01:54;;;;;;;7.38;0.40;;;6.20;99.90;;;;;;4897798;29;20156;-87
2023/03/04 09:04:20;;;;;;;3.70;0.40;;;6.40;99.90;;;;;;4913463;29;20384;-87
2023/03/04 09:06:46;;;;;;;5.75;0.32;;;6.50;99.90;;;;;;4898462;29;20127;-86
2023/03/04 09:09:11;;;;;;;5.25;0.50;;;6.30;99.90;;;;;;4898321;29;20035;-86
2023/03/04 09:11:37;;;;;;;6.03;0.40;;;6.30;99.90;;;;;;4913115;29;20052;-87
2023/03/04 09:14:03;;;;;;;9.88;0.50;;;6.20;99.90;;;;;;4894331;29;20515;-87
2023/03/04 09:16:28;;;;;;;3.15;0.22;;;6.30;99.90;;;;;;4895285;29;20056;-85
2023/03/04 09:18:54;;;;;;;2.78;0.28;;;6.30;99.90;;;;;;4914143;29;20051;-88
2023/03/04 09:21:20;;;;;;;6.15;0.52;;;6.10;99.90;;;;;;4914800;29;20531;-87
2023/03/04 09:23:45;;;;;;;6.22;0.30;;;6.10;99.90;;;;;;4913583;29;20032;-86
2023/03/04 09:26:15;;;;;;;6.18;0.50;;;6.20;99.90;;;;;;4913468;29;20469;-86
2023/03/04 09:28:41;;;;;;;5.80;0.40;;;6.10;99.90;;;;;;4913891;29;20489;-87
2023/03/04 09:31:11;;;;;;;5.32;0.57;;;6.00;99.90;;;;;;4883645;29;20052;-87
2023/03/04 09:33:37;;;;;;;6.60;0.40;;;6.10;99.90;;;;;;4897993;29;20052;-87
2023/03/04 09:36:03;;;;;;;4.50;0.50;;;6.20;99.90;;;;;;4897484;29;20501;-85
2023/03/04 09:38:29;;;;;;;3.88;0.40;;;6.40;99.90;;;;;;4897710;29;20115;-85
2023/03/04 09:40:55;;;;;;;3.92;0.30;;;6.30;99.90;;;;;;4894679;29;20445;-85
2023/03/04 09:43:28;;;;;;;5.13;0.40;;;6.50;99.90;;;;;;4898041;29;20087;-85
2023/03/04 09:46:00;;;;;;;5.80;0.40;;;6.60;99.90;;;;;;4893581;29;20051;-86
2023/03/04 09:48:29;;;;;;;5.82;0.40;;;6.60;99.90;;;;;;4892585;29;20028;-86
2023/03/04 09:51:11;;;;;;;3.30;0.30;;;6.70;99.90;;;;;;4908179;29;20090;-86
2023/03/04 09:53:57;;;;;;;1.58;0.28;;;6.60;99.90;;;;;;4910380;29;20488;-86
2023/03/04 09:56:24;;;;;;;2.40;0.30;;;6.50;99.90;;;;;;4893686;29;20032;-87
2023/03/04 09:59:01;;;;;;;0.90;0.30;;;6.60;99.90;;;;;;4911007;29;20049;-87
2023/03/04 10:01:49;;;;;;;3.58;0.28;;;6.60;99.90;;;;;;4892114;29;20039;-87
2023/03/04 10:04:24;;;;;;;2.78;0.30;;;6.90;99.90;;;;;;4892627;29;20070;-86
2023/03/04 10:06:53;;;;;;;2.20;0.30;;;7.40;99.90;;;;;;4897106;29;20056;-85
2023/03/04 10:09:41;;;;;;;2.88;0.30;;;7.10;99.90;;;;;;4894530;29;20092;-86
2023/03/04 10:12:16;;;;;;;2.03;0.25;;;6.80;99.90;;;;;;4912124;29;20051;-86
2023/03/04 10:14:58;;;;;;;2.08;0.30;;;6.90;99.90;;;;;;4889970;29;20370;-85
2023/03/04 10:17:31;;;;;;;1.67;0.28;;;6.80;99.90;;;;;;4893074;29;20080;-86
2023/03/04 10:20:22;;;;;;;2.45;0.35;;;7.20;99.90;;;;;;4908385;29;20407;-85
2023/03/04 10:22:51;;;;;;;5.10;0.30;;;7.40;99.90;;;;;;4912659;29;20024;-85
2023/03/04 10:25:28;;;;;;;2.10;0.30;;;7.20;99.90;;;;;;4890803;29;20032;-87
2023/03/04 10:28:12;;;;;;;1.98;0.30;;;7.20;99.90;;;;;;4893558;29;20450;-86
2023/03/04 10:30:57;;;;;;;3.33;0.30;;;7.30;99.90;;;;;;4890752;29;20048;-85
2023/03/04 10:33:26;;;;;;;3.92;0.30;;;7.40;99.90;;;;;;4897575;29;20047;-88
2023/03/04 10:36:25;;;;;;;2.93;0.30;;;7.30;99.90;;;;;;4908419;29;20486;-86
2023/03/04 10:39:01;;;;;;;1.38;0.22;;;7.10;99.90;;;;;;4893104;29;20758;-87
2023/03/04 10:41:28;;;;;;;2.90;0.40;;;7.00;99.90;;;;;;4906979;29;20075;-86
2023/03/04 10:44:03;;;;;;;2.60;0.38;;;7.10;99.90;;;;;;4895310;29;20040;-87
2023/03/04 10:46:31;;;;;;;2.72;0.38;;;7.10;99.90;;;;;;4907346;29;20028;-86
2023/03/04 10:48:57;;;;;;;2.42;0.40;;;7.00;99.90;;;;;;4892006;29;20036;-87
2023/03/04 10:51:25;;;;;;;2.15;0.20;;;7.00;99.90;;;;;;4912301;29;20028;-87
2023/03/04 10:53:56;;;;;;;4.60;0.30;;;6.80;99.90;;;;;;4891558;29;20539;-87
2023/03/04 10:56:35;;;;;;;2.85;0.28;;;6.70;99.90;;;;;;4893455;29;20033;-87
2023/03/04 10:59:29;;;;;;;1.03;0.27;;;6.60;99.90;;;;;;4896068;29;20074;-87
2023/03/04 11:01:56;;;;;;;2.45;0.25;;;6.50;99.90;;;;;;4894766;29;20299;-88
2023/03/04 11:04:26;;;;;;;1.17;0.20;;;6.60;99.90;;;;;;4891556;29;20063;-87
2023/03/04 11:06:53;;;;;;;1.75;0.32;;;6.60;99.90;;;;;;4892059;29;20038;-85
2023/03/04 11:09:27;;;;;;;3.70;0.20;;;6.70;99.90;;;;;;4891802;29;20246;-87
2023/03/04 11:11:57;;;;;;;1.13;0.20;;;6.80;99.90;;;;;;4891102;29;20075;-87
2023/03/04 11:14:34;;;;;;;3.50;0.75;;;6.80;99.90;;;;;;4884391;29;20115;-87
2023/03/04 11:17:42;;;;;;;0.93;0.30;;;7.00;99.90;;;;;;4893127;29;20107;-87
2023/03/04 11:20:24;;;;;;;2.85;0.20;;;7.00;99.90;;;;;;4904313;29;20042;-86
2023/03/04 11:22:51;;;;;;;3.67;0.38;;;7.70;99.90;;;;;;4893931;29;20033;-87
2023/03/04 11:25:31;;;;;;;0.65;0.10;;;7.80;99.90;;;;;;4895717;29;20465;-87
2023/03/04 11:28:26;;;;;;;0.70;0.20;;;7.60;99.90;;;;;;4895116;29;20024;-88
2023/03/04 11:30:59;;;;;;;1.52;0.20;;;7.40;99.90;;;;;;4889497;29;20100;-86
2023/03/04 11:33:56;;;;;;;1.88;0.20;;;7.10;99.90;;;;;;4895085;29;20060;-87
2023/03/04 11:36:46;;;;;;;1.95;0.13;;;6.80;99.90;;;;;;4890572;29;20466;-87
2023/03/04 11:39:15;;;;;;;;;;;6.80;99.90;;;;;;4895189;29;20044;-86
2023/03/04 11:41:57;;;;;;;1.38;0.20;;;6.90;99.90;;;;;;4891621;29;19911;-88
2023/03/04 11:44:24;;;;;;;1.92;0.20;;;6.90;99.90;;;;;;4891484;29;20056;-88
2023/03/04 11:47:17;;;;;;;0.88;0.30;;;6.80;99.90;;;;;;4892900;29;20476;-87
2023/03/04 11:50:15;;;;;;;0.90;0.20;;;6.90;99.90;;;;;;4891981;29;20577;-88
2023/03/04 11:53:13;;;;;;;0.93;0.20;;;7.00;99.90;;;;;;4833954;29;20046;-87
2023/03/04 11:55:56;;;;;;;0.93;0.20;;;7.20;99.90;;;;;;4803281;29;20140;-86
2023/03/04 11:58:46;;;;;;;1.73;0.20;;;7.30;99.90;;;;;;4817872;29;20061;-87
2023/03/04 12:01:31;;;;;;;;;;;7.20;99.90;;;;;;4820335;29;20030;-88
2023/03/04 12:04:22;;;;;;;0.80;0.10;;;7.20;99.90;;;;;;4822134;29;19969;-86
2023/03/04 12:06:56;;;;;;;0.28;0.00;;;7.40;99.90;;;;;;4832756;29;20514;-87
2023/03/04 12:09:43;;;;;;;0.43;0.00;;;7.40;99.90;;;;;;4834387;29;20492;-88
2023/03/04 12:12:32;;;;;;;0.95;0.45;;;7.40;99.90;;;;;;4833685;29;20051;-88
2023/03/04 12:15:19;;;;;;;0.88;0.10;;;7.40;99.90;;;;;;4817682;29;20045;-88
2023/03/04 12:17:59;;;;;;;1.40;0.10;;;7.30;99.90;;;;;;4817952;29;20088;-87
2023/03/04 12:20:45;;;;;;;0.85;0.10;;;7.30;99.90;;;;;;4835508;29;20426;-87
2023/03/04 12:23:40;;;;;;;2.67;0.10;;;7.30;99.90;;;;;;4834381;29;20467;-89
2023/03/04 12:26:15;;;;;;;1.33;0.10;;;7.40;99.90;;;;;;4807543;29;20508;-87
2023/03/04 12:29:29;;;;;;;1.25;0.10;;;7.20;99.90;;;;;;4840746;29;20089;-86
2023/03/04 12:32:09;;;;;;;1.33;0.10;;;7.20;99.90;;;;;;4867013;29;20045;-87
2023/03/04 12:35:31;;;;;;;2.40;0.10;;;7.20;99.90;;;;;;4892146;29;20032;-87
2023/03/04 12:38:04;;;;;;;3.22;0.10;;;7.30;99.90;;;;;;4863880;29;20045;-87
2023/03/04 12:40:44;;;;;;;1.65;0.20;;;7.30;99.90;;;;;;4872499;29;20035;-87
2023/03/04 12:43:21;;;;;;;1.85;0.20;;;7.30;99.90;;;;;;4856571;29;20060;-87
2023/03/04 12:46:21;;;;;;;3.30;0.20;;;7.20;99.90;;;;;;4856875;29;20470;-87
2023/03/04 12:49:01;;;;;;;1.50;0.10;;;7.10;99.90;;;;;;4843535;29;20566;-86
2023/03/04 12:51:43;;;;;;;1.65;0.40;;;7.10;99.90;;;;;;4851037;29;20044;-87
2023/03/04 12:54:37;;;;;;;2.70;0.20;;;7.00;99.90;;;;;;4874711;29;20033;-88
2023/03/04 12:57:21;;;;;;;4.10;0.20;;;6.90;99.90;;;;;;4856097;29;20064;-88
2023/03/04 13:00:03;;;;;;;2.58;0.20;;;6.80;99.90;;;;;;4860428;29;20035;-87
2023/03/04 13:02:35;;;;;;;4.57;0.20;;;6.70;99.90;;;;;;4860439;29;20045;-87
2023/03/04 13:05:06;;;;;;;3.75;0.30;;;6.70;99.90;;;;;;4859816;29;20474;-87
2023/03/04 13:07:46;;;;;;;4.07;0.30;;;6.70;99.90;;;;;;4860128;29;20120;-87
2023/03/04 13:10:15;;;;;;;6.80;0.40;;;6.70;99.90;;;;;;4894217;29;20469;-87
2023/03/04 13:12:56;;;;;;;3.85;0.25;;;6.70;99.90;;;;;;4910083;29;20072;-88